createdAt,value
2022-11-01T00:01:53.484Z,21.50
2022-11-01T00:04:20.614Z,21.10
2022-11-01T00:06:48.378Z,23.33
2022-11-01T00:09:16.591Z,17.67
2022-11-01T00:11:43.383Z,21.20
2022-11-01T00:14:15.321Z,13.73
2022-11-01T00:16:42.831Z,25.80
2022-11-01T00:19:10.021Z,15.80
2022-11-01T00:21:37.100Z,18.50
2022-11-01T00:24:04.029Z,17.07
2022-11-01T00:26:30.771Z,16.27
2022-11-01T00:28:57.545Z,15.17
2022-11-01T00:31:24.508Z,12.90
2022-11-01T00:33:51.241Z,16.63
2022-11-01T00:36:18.271Z,15.97
2022-11-01T00:38:45.133Z,15.53
2022-11-01T00:41:12.930Z,13.97
2022-11-01T00:43:39.637Z,13.30
2022-11-01T00:46:06.380Z,12.17
2022-11-01T00:48:33.202Z,17.37
2022-11-01T00:50:59.883Z,12.53
2022-11-01T00:53:26.621Z,16.40
2022-11-01T00:55:53.399Z,12.57
2022-11-01T00:58:20.211Z,12.37
2022-11-01T01:00:48.155Z,14.13
2022-11-01T01:03:15.132Z,16.43
2022-11-01T01:05:41.879Z,15.00
2022-11-01T01:08:08.608Z,15.90
2022-11-01T01:10:35.582Z,15.70
2022-11-01T01:13:02.693Z,16.73
2022-11-01T01:15:29.717Z,13.57
2022-11-01T01:17:56.543Z,12.80
2022-11-01T01:20:23.999Z,20.83
2022-11-01T01:22:50.917Z,15.87
2022-11-01T01:25:18.003Z,15.70
2022-11-01T01:27:44.739Z,14.43
2022-11-01T01:30:12.245Z,14.87
2022-11-01T01:32:38.919Z,16.10
2022-11-01T01:35:06.328Z,16.53
2022-11-01T01:37:33.287Z,16.90
2022-11-01T01:40:00.217Z,16.40
2022-11-01T01:42:31.016Z,14.80
2022-11-01T01:45:10.862Z,13.80
2022-11-01T01:47:40.373Z,16.60
2022-11-01T01:50:30.953Z,16.43
2022-11-01T01:53:08.463Z,16.57
2022-11-01T01:55:38.105Z,22.37
2022-11-01T01:58:06.809Z,17.87
2022-11-01T02:00:33.770Z,26.00
2022-11-01T02:03:01.008Z,16.53
2022-11-01T02:05:39.101Z,18.43
2022-11-01T02:08:06.979Z,24.37
2022-11-01T02:10:34.587Z,21.30
2022-11-01T02:13:01.401Z,21.83
2022-11-01T02:15:59.370Z,21.67
2022-11-01T02:18:33.417Z,22.20
2022-11-01T02:21:08.955Z,21.23
2022-11-01T02:24:20.786Z,18.90
2022-11-01T02:26:56.495Z,17.63
2022-11-01T02:29:35.196Z,16.80
2022-11-01T02:32:26.987Z,19.03
2022-11-01T02:35:26.991Z,17.40
2022-11-01T02:38:05.277Z,14.40
2022-11-01T02:40:52.487Z,18.13
2022-11-01T02:43:24.451Z,13.90
2022-11-01T02:45:51.908Z,13.83
2022-11-01T02:48:21.759Z,16.53
2022-11-01T02:50:56.614Z,13.07
2022-11-01T02:53:23.619Z,14.40
2022-11-01T02:55:54.161Z,12.80
2022-11-01T02:58:25.034Z,14.60
2022-11-01T03:00:52.204Z,13.47
2022-11-01T03:03:34.650Z,13.33
2022-11-01T03:06:01.496Z,13.93
2022-11-01T03:08:38.614Z,13.03
2022-11-01T03:11:11.275Z,14.20
2022-11-01T03:13:46.986Z,14.83
2022-11-01T03:16:32.134Z,16.53
2022-11-01T03:19:07.758Z,16.90
2022-11-01T03:21:42.109Z,22.87
2022-11-01T03:24:24.807Z,22.47
2022-11-01T03:27:00.762Z,18.93
2022-11-01T03:29:30.807Z,21.00
2022-11-01T03:31:59.431Z,25.03
2022-11-01T03:34:26.296Z,19.67
2022-11-01T03:36:57.725Z,22.20
2022-11-01T03:39:51.922Z,22.53
2022-11-01T03:42:22.439Z,19.53
2022-11-01T03:44:54.216Z,20.07
2022-11-01T03:47:21.059Z,26.37
2022-11-01T03:49:47.830Z,19.43
2022-11-01T03:52:14.499Z,19.80
2022-11-01T03:54:41.220Z,25.00
2022-11-01T03:57:08.002Z,23.50
2022-11-01T03:59:34.830Z,23.93
2022-11-01T04:02:01.641Z,26.00
2022-11-01T04:04:28.551Z,21.03
2022-11-01T04:06:55.263Z,20.83
2022-11-01T04:09:21.970Z,22.73
2022-11-01T04:11:48.687Z,23.63
2022-11-01T04:14:33.833Z,21.70
2022-11-01T04:17:19.321Z,22.87
2022-11-01T04:20:04.932Z,16.90
2022-11-01T04:22:31.714Z,17.80
2022-11-01T04:24:58.415Z,17.13
2022-11-01T04:27:25.130Z,20.00
2022-11-01T04:29:51.826Z,17.90
2022-11-01T04:32:18.507Z,20.93
2022-11-01T04:34:45.300Z,19.57
2022-11-01T04:37:12.362Z,19.03
2022-11-01T04:39:39.219Z,19.30
2022-11-01T04:42:05.989Z,18.40
2022-11-01T04:44:32.722Z,18.60
2022-11-01T04:46:59.490Z,21.77
2022-11-01T04:49:26.261Z,19.43
2022-11-01T04:51:52.963Z,26.40
2022-11-01T04:54:19.704Z,24.33
2022-11-01T04:56:46.397Z,19.73
2022-11-01T04:59:13.123Z,25.80
2022-11-01T05:01:39.913Z,24.90
2022-11-01T05:04:06.693Z,23.23
2022-11-01T05:06:33.377Z,22.10
2022-11-01T05:09:00.170Z,27.70
2022-11-01T05:11:27.011Z,23.90
2022-11-01T05:13:53.760Z,20.43
2022-11-01T05:16:21.275Z,20.00
2022-11-01T05:18:48.805Z,23.37
2022-11-01T05:21:15.603Z,21.87
2022-11-01T05:23:42.383Z,21.10
2022-11-01T05:26:09.133Z,23.83
2022-11-01T05:28:35.851Z,28.07
2022-11-01T05:31:02.640Z,21.50
2022-11-01T05:33:29.370Z,23.00
2022-11-01T05:35:56.167Z,22.13
2022-11-01T05:38:22.951Z,20.70
2022-11-01T05:40:50.503Z,22.33
2022-11-01T05:43:17.243Z,19.70
2022-11-01T05:45:44.200Z,20.37
2022-11-01T05:48:12.052Z,18.80
2022-11-01T05:50:38.757Z,20.03
2022-11-01T05:53:10.101Z,19.90
2022-11-01T05:55:37.251Z,23.50
2022-11-01T05:58:04.264Z,19.80
2022-11-01T06:00:31.642Z,22.47
2022-11-01T06:02:59.816Z,23.60
2022-11-01T06:05:27.892Z,21.77
2022-11-01T06:07:54.685Z,23.63
2022-11-01T06:10:21.591Z,23.93
2022-11-01T06:12:48.398Z,23.33
2022-11-01T06:15:15.213Z,19.90
2022-11-01T06:17:41.944Z,19.47
2022-11-01T06:20:09.234Z,18.97
2022-11-01T06:22:36.680Z,17.40
2022-11-01T06:25:04.111Z,19.73
2022-11-01T06:27:30.939Z,16.47
2022-11-01T06:29:57.714Z,18.73
2022-11-01T06:32:24.411Z,15.17
2022-11-01T06:34:51.124Z,15.90
2022-11-01T06:37:17.834Z,20.57
2022-11-01T06:39:44.528Z,18.33
2022-11-01T06:42:11.239Z,15.80
2022-11-01T06:44:37.970Z,24.53
2022-11-01T06:47:04.980Z,19.40
2022-11-01T06:49:31.799Z,18.27
2022-11-01T06:51:58.534Z,17.03
2022-11-01T06:54:25.759Z,15.13
2022-11-01T06:56:52.503Z,17.50
2022-11-01T06:59:19.237Z,19.03
2022-11-01T07:01:46.066Z,15.40
2022-11-01T07:04:13.091Z,14.63
2022-11-01T07:06:40.120Z,14.80
2022-11-01T07:09:06.865Z,18.43
2022-11-01T07:11:33.980Z,11.73
2022-11-01T07:14:00.759Z,10.43
2022-11-01T07:16:27.854Z,13.00
2022-11-01T07:18:54.682Z,16.17
2022-11-01T07:21:21.700Z,17.27
2022-11-01T07:23:48.723Z,16.57
2022-11-01T07:26:15.586Z,17.87
2022-11-01T07:28:42.351Z,14.53
2022-11-01T07:31:09.033Z,13.80
2022-11-01T07:33:35.827Z,12.93
2022-11-01T07:36:03.383Z,13.47
2022-11-01T07:38:52.910Z,14.10
2022-11-01T07:41:19.585Z,9.27
2022-11-01T07:43:46.291Z,10.00
2022-11-01T07:46:13.008Z,10.40
2022-11-01T07:48:39.870Z,14.07
2022-11-01T07:51:08.141Z,10.23
2022-11-01T07:53:35.035Z,10.97
2022-11-01T07:56:02.274Z,18.93
2022-11-01T07:58:29.208Z,11.73
2022-11-01T08:00:56.436Z,12.30
2022-11-01T08:03:23.908Z,18.33
2022-11-01T08:05:50.636Z,16.40
2022-11-01T08:08:18.239Z,13.20
2022-11-01T08:10:45.176Z,15.80
2022-11-01T08:13:19.315Z,11.30
2022-11-01T08:15:47.390Z,12.93
2022-11-01T08:18:15.037Z,12.20
2022-11-01T08:20:42.208Z,13.60
2022-11-01T08:23:09.192Z,12.13
2022-11-01T08:25:36.144Z,18.90
2022-11-01T08:28:10.525Z,9.57
2022-11-01T08:30:39.002Z,8.57
2022-11-01T08:33:06.720Z,4.67
2022-11-01T08:35:34.504Z,3.93
2022-11-01T08:38:03.176Z,2.63
2022-11-01T08:40:30.379Z,1.80
2022-11-01T08:42:57.490Z,3.67
2022-11-01T08:45:25.106Z,2.17
2022-11-01T08:48:00.741Z,1.77
2022-11-01T08:50:27.878Z,1.77
2022-11-01T08:52:54.630Z,1.30
2022-11-01T08:55:21.889Z,2.70
2022-11-01T08:57:48.953Z,1.80
2022-11-01T09:00:16.774Z,5.33
2022-11-01T09:02:43.528Z,3.73
2022-11-01T09:05:10.385Z,8.67
2022-11-01T09:07:37.928Z,5.33
2022-11-01T09:10:05.499Z,7.73
2022-11-01T09:12:32.299Z,8.37
2022-11-01T09:14:59.079Z,7.63
2022-11-01T09:17:25.788Z,7.47
2022-11-01T09:19:52.568Z,5.57
2022-11-01T09:22:19.343Z,9.90
2022-11-01T09:24:46.041Z,8.23
2022-11-01T09:27:12.874Z,8.77
2022-11-01T09:29:40.276Z,12.00
2022-11-01T09:32:06.976Z,14.97
2022-11-01T09:34:34.327Z,9.30
2022-11-01T09:37:01.574Z,5.47
2022-11-01T09:39:28.309Z,6.20
2022-11-01T09:41:59.913Z,6.70
2022-11-01T09:44:37.424Z,7.70
2022-11-01T09:47:25.394Z,7.20
2022-11-01T09:50:11.947Z,7.80
2022-11-01T09:52:41.011Z,7.00
2022-11-01T09:55:21.910Z,9.13
2022-11-01T09:58:02.298Z,5.00
2022-11-01T10:00:35.905Z,3.33
2022-11-01T10:03:21.279Z,2.40
2022-11-01T10:06:02.557Z,2.87
2022-11-01T10:08:47.873Z,5.40
2022-11-01T10:11:51.280Z,3.27
2022-11-01T10:14:28.228Z,3.63
2022-11-01T10:17:16.255Z,2.33
2022-11-01T10:19:49.699Z,5.40
2022-11-01T10:22:37.876Z,1.50
2022-11-01T10:25:19.792Z,1.30
2022-11-01T10:27:58.498Z,1.80
2022-11-01T10:30:27.254Z,1.40
2022-11-01T10:33:02.682Z,1.20
2022-11-01T10:35:35.190Z,2.57
2022-11-01T10:38:59.220Z,2.17
2022-11-01T10:41:41.194Z,2.00
2022-11-01T10:44:16.450Z,2.10
2022-11-01T10:46:47.972Z,2.90
2022-11-01T10:52:28.344Z,1.97
2022-11-01T10:54:56.699Z,1.20
2022-11-01T10:57:38.238Z,4.53
2022-11-01T11:00:14.110Z,1.60
2022-11-01T11:02:46.065Z,1.40
2022-11-01T11:05:14.010Z,2.67
2022-11-01T11:07:41.415Z,1.23
2022-11-01T11:10:27.330Z,1.10
2022-11-01T11:12:59.170Z,1.07
2022-11-01T11:15:45.731Z,1.10
2022-11-01T11:18:23.802Z,1.00
2022-11-01T11:20:52.635Z,1.20
2022-11-01T11:23:22.099Z,1.00
2022-11-01T11:25:50.520Z,1.67
2022-11-01T11:28:30.427Z,1.43
2022-11-01T11:31:11.107Z,2.00
2022-11-01T11:33:38.019Z,1.83
2022-11-01T11:36:05.651Z,1.00
2022-11-01T11:38:51.283Z,1.43
2022-11-01T11:41:36.636Z,1.10
2022-11-01T11:44:03.755Z,1.43
2022-11-01T11:46:30.806Z,1.83
2022-11-01T11:49:07.033Z,1.50
2022-11-01T11:51:38.114Z,1.97
2022-11-01T11:54:37.554Z,1.43
2022-11-01T11:57:16.499Z,1.30
2022-11-01T12:02:24.933Z,2.03
2022-11-01T12:05:01.579Z,1.30
2022-11-01T12:07:35.112Z,1.63
2022-11-01T12:10:26.100Z,1.37
2022-11-01T12:12:54.277Z,3.27
2022-11-01T12:15:29.100Z,1.53
2022-11-01T12:17:56.450Z,1.97
2022-11-01T12:20:35.443Z,2.90
2022-11-01T12:23:24.154Z,1.70
2022-11-01T12:25:52.090Z,3.23
2022-11-01T12:28:36.469Z,2.67
2022-11-01T12:31:17.892Z,1.90
2022-11-01T12:33:50.515Z,3.77
2022-11-01T12:36:22.586Z,2.47
2022-11-01T12:38:52.328Z,1.47
2022-11-01T12:41:35.251Z,2.83
2022-11-01T12:44:28.931Z,1.40
2022-11-01T12:47:28.025Z,2.40
2022-11-01T12:50:07.118Z,4.23
2022-11-01T12:52:43.966Z,2.57
2022-11-01T12:55:32.159Z,5.00
2022-11-01T12:57:58.989Z,1.90
2022-11-01T13:00:49.236Z,5.40
2022-11-01T13:03:15.894Z,1.20
2022-11-01T13:05:42.525Z,3.83
2022-11-01T13:08:27.970Z,3.67
2022-11-01T13:11:03.288Z,2.37
2022-11-01T13:13:50.167Z,3.57
2022-11-01T13:16:25.986Z,2.10
2022-11-01T13:18:58.833Z,1.37
2022-11-01T13:21:42.951Z,1.47
2022-11-01T13:24:44.242Z,2.90
2022-11-01T13:27:24.421Z,2.67
2022-11-01T13:30:01.724Z,2.23
2022-11-01T13:32:34.538Z,1.93
2022-11-01T13:35:38.961Z,3.47
2022-11-01T13:38:24.062Z,2.57
2022-11-01T13:41:09.480Z,2.20
2022-11-01T13:44:06.595Z,4.67
2022-11-01T13:46:41.831Z,4.63
2022-11-01T13:49:08.495Z,3.10
2022-11-01T13:52:09.072Z,2.30
2022-11-01T13:54:54.386Z,5.03
2022-11-01T13:57:25.649Z,3.43
2022-11-01T14:00:06.959Z,2.27
2022-11-01T14:02:42.387Z,3.53
2022-11-01T14:05:12.668Z,6.20
2022-11-01T14:07:45.420Z,3.43
2022-11-01T14:10:18.037Z,2.83
2022-11-01T14:13:05.585Z,3.63
2022-11-01T14:15:34.780Z,1.47
2022-11-01T14:18:13.347Z,4.63
2022-11-01T14:20:42.820Z,3.73
2022-11-01T14:23:28.113Z,5.83
2022-11-01T14:26:22.834Z,2.80
2022-11-01T14:28:51.547Z,5.30
2022-11-01T14:31:22.043Z,1.37
2022-11-01T14:33:48.930Z,1.93
2022-11-01T14:36:19.530Z,5.70
2022-11-01T14:38:52.402Z,2.60
2022-11-01T14:41:20.547Z,2.93
2022-11-01T14:43:52.288Z,4.53
2022-11-01T14:46:25.122Z,2.33
2022-11-01T14:48:57.609Z,6.43
2022-11-01T14:51:28.559Z,4.43
2022-11-01T14:54:06.789Z,5.73
2022-11-01T14:56:40.919Z,3.83
2022-11-01T14:59:28.494Z,7.70
2022-11-01T15:02:02.714Z,2.90
2022-11-01T15:04:32.721Z,6.13
2022-11-01T15:07:00.623Z,4.03
2022-11-01T15:09:30.371Z,29.63
2022-11-01T15:12:09.110Z,13.03
2022-11-01T15:14:41.617Z,5.63
2022-11-01T15:17:22.623Z,6.07
2022-11-01T15:19:54.404Z,22.80
2022-11-01T15:22:27.846Z,31.00
2022-11-01T15:25:00.454Z,29.97
2022-11-01T15:27:41.879Z,21.73
2022-11-01T15:30:20.291Z,19.43
2022-11-01T15:33:10.426Z,16.63
2022-11-01T15:35:37.101Z,12.77
2022-11-01T15:38:03.832Z,8.97
2022-11-01T15:40:35.042Z,8.17
2022-11-01T15:43:03.683Z,4.10
2022-11-01T15:45:34.418Z,4.70
2022-11-01T15:48:08.565Z,3.43
2022-11-01T15:50:39.256Z,7.20
2022-11-01T15:53:12.562Z,5.30
2022-11-01T15:55:45.186Z,7.73
2022-11-01T15:58:20.052Z,11.80
2022-11-01T16:00:51.020Z,7.00
2022-11-01T16:03:27.632Z,12.80
2022-11-01T16:05:59.729Z,8.37
2022-11-01T16:08:42.091Z,8.27
2022-11-01T16:11:09.436Z,5.80
2022-11-01T16:13:37.413Z,5.77
2022-11-01T16:16:11.390Z,8.23
2022-11-01T16:18:41.593Z,11.23
2022-11-01T16:21:20.372Z,18.00
2022-11-01T16:23:57.906Z,15.00
2022-11-01T16:26:24.636Z,25.43
2022-11-01T16:28:53.314Z,16.43
2022-11-01T16:31:28.444Z,13.70
2022-11-01T16:33:57.133Z,8.00
2022-11-01T16:36:32.055Z,8.50
2022-11-01T16:38:58.922Z,7.10
2022-11-01T16:41:40.701Z,5.63
2022-11-01T16:44:15.979Z,5.10
2022-11-01T16:46:43.155Z,5.57
2022-11-01T16:49:20.444Z,8.50
2022-11-01T16:51:47.569Z,8.03
2022-11-01T16:54:14.939Z,10.10
2022-11-01T16:56:48.186Z,6.90
2022-11-01T16:59:33.891Z,6.07
2022-11-01T17:02:02.495Z,8.93
2022-11-01T17:04:29.716Z,17.63
2022-11-01T17:06:59.702Z,7.20
2022-11-01T17:09:29.373Z,6.07
2022-11-01T17:11:56.255Z,5.60
2022-11-01T17:14:23.009Z,9.80
2022-11-01T17:16:52.071Z,5.93
2022-11-01T17:19:21.832Z,8.93
2022-11-01T17:21:50.258Z,6.17
2022-11-01T17:24:20.381Z,8.63
2022-11-01T17:26:48.697Z,5.40
2022-11-01T17:29:15.487Z,6.67
2022-11-01T17:31:42.201Z,6.50
2022-11-01T17:34:09.034Z,7.60
2022-11-01T17:36:37.554Z,9.60
2022-11-01T17:39:04.578Z,5.47
2022-11-01T17:41:31.346Z,6.53
2022-11-01T17:43:58.163Z,6.93
2022-11-01T17:46:26.052Z,6.23
2022-11-01T17:48:52.794Z,8.57
2022-11-01T17:51:20.050Z,7.13
2022-11-01T17:53:47.010Z,6.53
2022-11-01T17:56:13.689Z,10.40
2022-11-01T17:58:40.377Z,12.60
2022-11-01T18:01:08.317Z,8.03
2022-11-01T18:03:35.197Z,7.37
2022-11-01T18:06:02.022Z,12.10
2022-11-01T18:08:33.554Z,9.10
2022-11-01T18:11:21.851Z,8.23
2022-11-01T18:14:18.030Z,10.67
2022-11-01T18:16:56.757Z,6.90
2022-11-01T18:19:59.091Z,6.20
2022-11-01T18:22:49.546Z,5.63
2022-11-01T18:25:26.992Z,6.97
2022-11-01T18:27:56.263Z,9.13
2022-11-01T18:30:23.403Z,9.73
2022-11-01T18:33:04.897Z,7.80
2022-11-01T18:35:37.664Z,18.97
2022-11-01T18:38:17.963Z,6.60
2022-11-01T18:41:01.575Z,10.07
2022-11-01T18:43:37.897Z,7.87
2022-11-01T18:46:31.274Z,8.47
2022-11-01T18:49:01.920Z,11.43
2022-11-01T18:51:33.738Z,6.00
2022-11-01T18:54:09.393Z,4.43
2022-11-01T18:56:40.687Z,4.13
2022-11-01T18:59:20.415Z,7.43
2022-11-01T19:01:54.288Z,5.37
2022-11-01T19:04:26.210Z,7.50
2022-11-01T19:07:12.552Z,6.13
2022-11-01T19:09:48.426Z,7.00
2022-11-01T19:12:25.495Z,5.30
2022-11-01T19:15:21.843Z,5.00
2022-11-01T19:17:56.741Z,10.23
2022-11-01T19:20:35.595Z,11.77
2022-11-01T19:23:15.141Z,15.57
2022-11-01T19:25:45.680Z,15.97
2022-11-01T19:28:15.422Z,19.17
2022-11-01T19:30:51.208Z,13.30
2022-11-01T19:33:34.481Z,10.90
2022-11-01T19:36:11.362Z,8.10
2022-11-01T19:38:43.226Z,6.13
2022-11-01T19:41:13.743Z,8.23
2022-11-01T19:43:40.687Z,8.17
2022-11-01T19:46:16.680Z,7.63
2022-11-01T19:48:43.495Z,5.83
2022-11-01T19:51:23.773Z,4.93
2022-11-01T19:53:51.446Z,10.70
2022-11-01T19:56:23.995Z,11.60
2022-11-01T19:58:54.979Z,10.60
2022-11-01T20:01:36.222Z,9.73
2022-11-01T20:04:31.202Z,8.77
2022-11-01T20:07:02.124Z,9.20
2022-11-01T20:09:32.513Z,11.20
2022-11-01T20:11:59.294Z,13.73
2022-11-01T20:14:26.063Z,10.27
2022-11-01T20:16:52.822Z,7.27
2022-11-01T20:19:20.462Z,7.37
2022-11-01T20:21:47.562Z,9.27
2022-11-01T20:24:15.650Z,6.60
2022-11-01T20:26:42.790Z,6.10
2022-11-01T20:29:10.034Z,10.07
2022-11-01T20:31:37.187Z,6.70
2022-11-01T20:34:04.258Z,12.00
2022-11-01T20:36:31.078Z,9.23
2022-11-01T20:38:57.847Z,9.10
2022-11-01T20:41:24.597Z,8.07
2022-11-01T20:43:51.345Z,10.03
2022-11-01T20:46:18.215Z,11.73
2022-11-01T20:48:48.261Z,9.10
2022-11-01T20:51:15.092Z,7.73
2022-11-01T20:53:41.982Z,11.63
2022-11-01T20:56:09.475Z,6.23
2022-11-01T20:58:40.333Z,7.00
2022-11-01T21:01:15.029Z,7.20
2022-11-01T21:03:41.828Z,10.83
2022-11-01T21:06:16.946Z,11.43
2022-11-01T21:08:47.071Z,8.27
2022-11-01T21:11:22.280Z,5.77
2022-11-01T21:13:51.697Z,9.43
2022-11-01T21:16:29.326Z,4.13
2022-11-01T21:19:02.151Z,6.40
2022-11-01T21:21:45.331Z,6.90
2022-11-01T21:24:35.108Z,8.43
2022-11-01T21:27:23.486Z,6.43
2022-11-01T21:29:51.447Z,6.23
2022-11-01T21:32:42.528Z,5.87
2022-11-01T21:35:20.869Z,9.30
2022-11-01T21:37:54.231Z,5.73
2022-11-01T21:40:29.913Z,6.80
2022-11-01T21:42:57.651Z,7.70
2022-11-01T21:45:29.660Z,9.27
2022-11-01T21:48:02.998Z,8.03
2022-11-01T21:50:30.184Z,4.23
2022-11-01T21:52:56.869Z,9.63
2022-11-01T21:55:23.630Z,5.70
2022-11-01T21:57:50.418Z,6.80
2022-11-01T22:00:17.313Z,5.30
2022-11-01T22:02:44.097Z,3.80
2022-11-01T22:05:10.856Z,7.50
2022-11-01T22:07:37.588Z,8.03
2022-11-01T22:10:04.798Z,8.97
2022-11-01T22:12:32.124Z,6.90
2022-11-01T22:14:59.026Z,13.07
2022-11-01T22:17:25.993Z,10.53
2022-11-01T22:19:52.803Z,10.07
2022-11-01T22:22:19.562Z,4.50
2022-11-01T22:24:46.295Z,5.70
2022-11-01T22:27:13.015Z,12.93
2022-11-01T22:29:39.707Z,4.97
2022-11-01T22:32:06.411Z,6.17
2022-11-01T22:34:33.149Z,11.50
2022-11-01T22:37:00.657Z,5.90
2022-11-01T22:39:29.750Z,9.13
2022-11-01T22:41:56.483Z,13.80
2022-11-01T22:44:27.358Z,17.53
2022-11-01T22:46:58.940Z,11.93
2022-11-01T22:49:40.365Z,9.40
2022-11-01T22:52:12.900Z,7.83
2022-11-01T22:54:52.036Z,8.50
2022-11-01T22:57:22.551Z,10.40
2022-11-01T22:59:49.235Z,11.90
2022-11-01T23:02:33.541Z,16.87
2022-11-01T23:05:06.518Z,15.53
2022-11-01T23:07:34.670Z,20.43
2022-11-01T23:10:07.428Z,12.50
2022-11-01T23:12:55.223Z,12.97
2022-11-01T23:15:33.423Z,14.63
2022-11-01T23:18:11.486Z,16.60
2022-11-01T23:20:40.747Z,10.97
2022-11-01T23:23:17.980Z,12.63
2022-11-01T23:25:45.226Z,10.27
2022-11-01T23:28:13.138Z,12.17
2022-11-01T23:30:42.326Z,16.37
2022-11-01T23:33:12.788Z,9.10
2022-11-01T23:35:39.553Z,10.40
2022-11-01T23:38:32.645Z,11.10
2022-11-01T23:40:59.421Z,8.33
2022-11-01T23:43:40.945Z,5.07
2022-11-01T23:46:10.781Z,8.17
2022-11-01T23:48:43.140Z,7.63
2022-11-01T23:51:18.514Z,8.43
2022-11-01T23:53:47.070Z,9.67
2022-11-01T23:56:17.563Z,12.00
2022-11-01T23:58:44.307Z,8.30
